Cherry Hills Village, CO

6:40 AM MST on December 29, 2014 (GMT -0700)
South Broadway Heights | Change Station
CLOSE
Current Station
Personal Weather Station
Location: Englewood, CO
Elevation: 5387 ft
Nearby Weather Stations
Active Advisory: Winter Weather Advisory Active Notice: Public Information Statement

Elev 5387 ft 39.65 °N, 104.98 °W | Updated 41 seconds ago

Overcast
Overcast
19.8 °F
Feels Like 20 °F
N
0.0
Wind Variable Wind from NNW
Gusts 0.0 mph

Today
High -- | Low -- °F
--% Chance of Precip.
Yesterday
High -- | Low -- °F
Precip. -- in
7:20 AM 4:44 PM
First Quarter, 59% visible
Pressure 30.04 in
Visibility 1.8 miles
Clouds Few 2100 ft
Overcast 3900 ft
Windchill 20 °F
Dew Point 13 °F
Humidity 74%
Rainfall 0.00 in
Snow Depth Not available.
UV 0 out of 12
Pollen .10 out of 12
Air Quality Not available.
Flu Activity Not available.
SPECI KAPA 291325Z 35012KT 1 3/4SM -SN BR FEW021 OVC039 M08/M11 A3004 RMK AO2 SNB18 P0000 T10781111

More Conditions Fewer Conditions

Pressure 30.04 in
Visibility 1.8 miles
Clouds Few 2100 ft
Overcast 3900 ft
Windchill 20 °F
Dew Point 13 °F
Humidity 74%
Rainfall 0.00 in
Snow Depth Not available.
UV 0 out of 12
Pollen .10 out of 12
Air Quality Not available.
Flu Activity Not available.
SPECI KAPA 291325Z 35012KT 1 3/4SM -SN BR FEW021 OVC039 M08/M11 A3004 RMK AO2 SNB18 P0000 T10781111

More Conditions Fewer Conditions

10-Day Weather Forecast

Almanac

Astronomy

Dec. 29, 2014 Rise Set
Actual Time
Civil Twilight
Nautical Twilight
Astronomical Twilight
Moon
Length of Visible Light
Length of Day
Tomorrow will be .
, % of the Moon is Illuminated

Today's Extremes

State Highs State Lows

Community

WunderPhotos

Upload Photos

1,781,586 photos uploaded!

WunderBlogs® & News

Nearby

Air Quality

  Air Quality AQ Index Pollutant
Not available.

Snow Depth

Station Depth Elevation

Earthquake Activity

City Distance Mag. Time & Date
Minimum magnitude displayed is 2.5.

Coastal Water Temperatures

Place Temperature

Nearby Weather Stations